Weather at Adolfo Suárez Madrid–Barajas Airport

Public forecast

Using degrees Celsius for public forecast. Weather courtesy of forecast.io.

Current aviation weather report (METAR) for Adolfo Suárez Madrid–Barajas Airport

Retrieved 2022/01/26 21:00 UTC (5 minutes ago):

LEMD 262100Z VRB02KT CAVOK 04/M01 Q1029 NOSIG

Aviation forecast (TAF) for Adolfo Suárez Madrid–Barajas Airport

Retrieved 2022/01/26 18:28 UTC (3 hours ago):

TAF LEMD 261700Z 2618/2724 VRB05KT CAVOK TX13/2715Z TNM03/2706Z